Ewtrford, Pennsylvania
Current Conditions -  °F | °C
As of 11:30 PM on Thursday 20 Nov 2014 (Local Time) from KAOO Reporting Station
Light Snow Light Snow  
Wind Chill:   Ceiling: 2500
Heat Index: 22°   Visibility: 2.5mi
Dew Point: 16°   Wind: 17mph
Humidity: 78%   Direction: 300°WNW
Pressure: 30.07"   Gusts: 29mph
Location:  40.3617°N, 77.6745°W
Report Text: KAOO 210430Z AUTO 30015G25KT 2 1/2SM -SN BKN025 OVC036 M06/M09 A3007 RMK AO2 SNB23 P0000 T10561089
Loading
Personal Weather Stations






























Interactive Weather Map New forecast layout! Learn more

10-Day Weather Forecast

Advertisements
Track Severe Weather on mobile